createdAt,value
2017-08-11T00:00:07.812Z,73.47
2017-08-11T00:02:35.377Z,65.50
2017-08-11T00:05:02.967Z,70.50
2017-08-11T00:07:30.555Z,74.63
2017-08-11T00:09:58.127Z,71.03
2017-08-11T00:12:25.731Z,80.33
2017-08-11T00:14:53.296Z,82.33
2017-08-11T00:17:20.849Z,73.10
2017-08-11T00:19:48.462Z,80.10
2017-08-11T00:22:16.020Z,59.60
2017-08-11T00:24:43.556Z,69.93
2017-08-11T00:27:11.128Z,69.23
2017-08-11T00:29:38.707Z,63.50
2017-08-11T00:32:06.275Z,52.87
2017-08-11T00:34:33.856Z,57.20
2017-08-11T00:37:01.456Z,57.27
2017-08-11T00:39:29.019Z,64.40
2017-08-11T00:41:56.634Z,61.77
2017-08-11T00:44:24.216Z,62.60
2017-08-11T00:46:52.562Z,60.63
2017-08-11T00:49:20.167Z,59.30
2017-08-11T00:51:47.730Z,56.67
2017-08-11T00:54:15.302Z,61.67
2017-08-11T00:56:42.909Z,65.20
2017-08-11T00:59:10.488Z,56.47
2017-08-11T01:01:38.071Z,58.60
2017-08-11T01:04:06.424Z,59.20
2017-08-11T01:06:33.989Z,65.10
2017-08-11T01:09:01.566Z,70.30
2017-08-11T01:11:29.179Z,73.30
2017-08-11T01:13:56.769Z,81.90
2017-08-11T01:16:24.341Z,79.20
2017-08-11T01:18:51.946Z,65.73
2017-08-11T01:21:19.520Z,49.67
2017-08-11T01:23:47.081Z,52.20
2017-08-11T01:26:14.687Z,56.23
2017-08-11T01:28:42.268Z,56.20
2017-08-11T01:31:09.836Z,54.67
2017-08-11T01:33:38.222Z,57.63
2017-08-11T01:36:05.803Z,60.87
2017-08-11T01:38:33.365Z,66.80
2017-08-11T01:41:00.973Z,66.30
2017-08-11T01:43:28.536Z,68.83
2017-08-11T01:45:56.129Z,67.67
2017-08-11T01:48:24.500Z,66.70
2017-08-11T01:50:52.056Z,68.50
2017-08-11T01:53:19.630Z,64.43
2017-08-11T01:55:47.989Z,59.40
2017-08-11T01:58:15.566Z,55.13
2017-08-11T02:00:43.160Z,60.47
2017-08-11T02:03:10.744Z,67.90
2017-08-11T02:05:38.323Z,64.87
2017-08-11T02:08:05.898Z,59.07
2017-08-11T02:10:33.502Z,50.40
2017-08-11T02:13:01.099Z,49.37
2017-08-11T02:15:28.678Z,53.83
2017-08-11T02:17:56.297Z,55.37
2017-08-11T02:20:23.883Z,50.87
2017-08-11T02:22:51.440Z,56.10
2017-08-11T02:25:19.018Z,50.40
2017-08-11T02:27:46.565Z,44.90
2017-08-11T02:30:14.119Z,44.13
2017-08-11T02:32:41.690Z,41.07
2017-08-11T02:35:09.216Z,51.33
2017-08-11T02:37:37.528Z,46.07
2017-08-11T02:40:05.099Z,40.43
2017-08-11T02:42:32.652Z,41.00
2017-08-11T02:45:00.204Z,42.23
2017-08-11T02:47:27.766Z,43.70
2017-08-11T02:49:55.320Z,39.17
2017-08-11T02:52:22.871Z,32.70
2017-08-11T02:54:50.434Z,38.30
2017-08-11T02:57:18.014Z,43.30
2017-08-11T02:59:45.549Z,39.63
2017-08-11T03:02:13.881Z,41.53
2017-08-11T03:04:41.412Z,41.27
2017-08-11T03:07:08.959Z,36.43
2017-08-11T03:09:36.536Z,38.50
2017-08-11T03:12:04.074Z,43.53
2017-08-11T03:14:32.410Z,38.43
2017-08-11T03:16:59.990Z,35.50
2017-08-11T03:19:27.532Z,43.90
2017-08-11T03:21:55.070Z,41.53
2017-08-11T03:24:22.642Z,35.67
2017-08-11T03:26:50.184Z,41.53
2017-08-11T03:29:17.743Z,37.70
2017-08-11T03:31:45.294Z,33.87
2017-08-11T03:34:12.858Z,26.10
2017-08-11T03:36:40.389Z,27.13
2017-08-11T03:39:07.933Z,33.13
2017-08-11T03:41:35.490Z,26.77
2017-08-11T03:44:03.028Z,30.83
2017-08-11T03:46:30.607Z,23.90
2017-08-11T03:48:58.141Z,22.67
2017-08-11T03:51:25.672Z,37.53
2017-08-11T03:53:53.265Z,24.37
2017-08-11T03:56:20.814Z,19.33
2017-08-11T03:58:48.353Z,19.93
2017-08-11T04:01:15.964Z,28.50
2017-08-11T04:03:43.502Z,32.63
2017-08-11T04:06:11.059Z,24.10
2017-08-11T04:08:38.630Z,24.17
2017-08-11T04:11:06.166Z,31.87
2017-08-11T04:13:34.477Z,23.00
2017-08-11T04:16:02.052Z,25.90
2017-08-11T04:18:29.603Z,19.07
2017-08-11T04:20:57.157Z,22.20
2017-08-11T04:23:24.735Z,25.83
2017-08-11T04:25:52.260Z,26.70
2017-08-11T04:28:20.574Z,23.43
2017-08-11T04:30:48.137Z,16.50
2017-08-11T04:33:15.670Z,20.87
2017-08-11T04:35:43.209Z,25.77
2017-08-11T04:38:11.545Z,25.50
2017-08-11T04:40:39.072Z,26.27
2017-08-11T04:43:06.622Z,21.83
2017-08-11T04:45:34.192Z,26.03
2017-08-11T04:48:02.569Z,22.37
2017-08-11T04:50:30.890Z,20.93
2017-08-11T04:52:58.464Z,22.47
2017-08-11T04:55:26.014Z,23.17
2017-08-11T04:57:53.540Z,30.33
2017-08-11T05:00:21.104Z,22.10
2017-08-11T05:02:48.655Z,24.73
2017-08-11T05:05:16.973Z,19.87
2017-08-11T05:07:44.540Z,23.10
2017-08-11T05:10:12.076Z,25.07
2017-08-11T05:12:39.614Z,21.73
2017-08-11T05:15:07.186Z,29.10
2017-08-11T05:17:35.507Z,23.73
2017-08-11T05:20:03.047Z,27.70
2017-08-11T05:22:30.617Z,32.03
2017-08-11T05:24:58.153Z,25.40
2017-08-11T05:27:25.718Z,22.37
2017-08-11T05:29:53.286Z,23.67
2017-08-11T05:32:20.832Z,19.63
2017-08-11T05:34:48.379Z,23.60
2017-08-11T05:37:16.712Z,29.90
2017-08-11T05:39:44.249Z,29.00
2017-08-11T05:42:11.835Z,23.47
2017-08-11T05:44:39.415Z,24.10
2017-08-11T05:47:06.962Z,23.87
2017-08-11T05:49:34.515Z,22.20
2017-08-11T05:52:02.103Z,26.63
2017-08-11T05:54:29.653Z,23.70
2017-08-11T05:56:57.213Z,33.30
2017-08-11T05:59:24.777Z,32.03
2017-08-11T06:01:52.317Z,29.63
2017-08-11T06:04:19.885Z,25.77
2017-08-11T06:06:47.445Z,31.47
2017-08-11T06:09:14.975Z,30.03
2017-08-11T06:11:42.509Z,31.97
2017-08-11T06:14:10.287Z,33.57
2017-08-11T06:16:37.820Z,28.17
2017-08-11T06:19:05.368Z,29.13
2017-08-11T06:21:32.930Z,24.33
2017-08-11T06:24:00.459Z,38.47
2017-08-11T06:26:28.013Z,28.50
2017-08-11T06:28:56.225Z,31.10
2017-08-11T06:31:23.781Z,30.20
2017-08-11T06:33:51.384Z,43.83
2017-08-11T06:36:19.139Z,24.50
2017-08-11T06:38:46.681Z,28.40
2017-08-11T06:41:14.208Z,23.33
2017-08-11T06:43:42.548Z,30.27
2017-08-11T06:46:10.087Z,27.50
2017-08-11T06:48:37.621Z,31.43
2017-08-11T06:51:05.199Z,33.93
2017-08-11T06:53:32.759Z,29.23
2017-08-11T06:56:00.319Z,28.47
2017-08-11T06:58:28.892Z,28.03
2017-08-11T07:00:56.431Z,36.03
2017-08-11T07:03:24.737Z,27.40
2017-08-11T07:05:52.424Z,23.07
2017-08-11T07:08:19.964Z,25.60
2017-08-11T07:10:47.515Z,19.13
2017-08-11T07:13:15.121Z,25.07
2017-08-11T07:15:42.692Z,25.70
2017-08-11T07:18:10.237Z,21.40
2017-08-11T07:20:37.819Z,27.17
2017-08-11T07:23:05.366Z,25.83
2017-08-11T07:25:32.918Z,31.83
2017-08-11T07:28:00.972Z,23.50
2017-08-11T07:30:28.525Z,25.73
2017-08-11T07:32:56.057Z,27.53
2017-08-11T07:35:23.638Z,33.87
2017-08-11T07:37:51.953Z,28.23
2017-08-11T07:40:19.503Z,24.00
2017-08-11T07:42:47.076Z,35.80
2017-08-11T07:45:15.075Z,28.13
2017-08-11T07:47:42.613Z,26.77
2017-08-11T07:50:10.191Z,23.97
2017-08-11T07:52:37.803Z,23.73
2017-08-11T07:55:05.349Z,26.93
2017-08-11T07:57:32.930Z,28.90
2017-08-11T08:00:00.479Z,27.00
2017-08-11T08:02:28.780Z,26.20
2017-08-11T08:04:56.331Z,28.63
2017-08-11T08:07:23.882Z,23.27
2017-08-11T08:09:52.186Z,34.60
2017-08-11T08:12:19.768Z,30.13
2017-08-11T08:14:47.304Z,29.23
2017-08-11T08:17:14.845Z,23.43
2017-08-11T08:19:43.169Z,25.83
2017-08-11T08:22:10.706Z,23.80
2017-08-11T08:24:38.267Z,22.17
2017-08-11T08:27:05.852Z,24.43
2017-08-11T08:29:33.393Z,25.10
2017-08-11T08:32:00.942Z,21.97
2017-08-11T08:34:29.687Z,24.53
2017-08-11T08:36:58.229Z,29.23
2017-08-11T08:39:25.764Z,21.17
2017-08-11T08:41:54.112Z,30.03
2017-08-11T08:44:21.659Z,26.77
2017-08-11T08:46:49.197Z,25.43
2017-08-11T08:49:16.758Z,25.27
2017-08-11T08:51:44.311Z,33.73
2017-08-11T08:54:11.871Z,30.27
2017-08-11T08:56:39.450Z,30.90
2017-08-11T08:59:06.976Z,37.20
2017-08-11T09:01:35.280Z,27.20
2017-08-11T09:04:07.168Z,23.43
2017-08-11T09:06:34.807Z,19.37
2017-08-11T09:09:02.353Z,25.30
2017-08-11T09:11:30.689Z,24.20
2017-08-11T09:13:58.236Z,25.63
2017-08-11T09:16:25.787Z,24.23
2017-08-11T09:18:53.344Z,27.13
2017-08-11T09:21:20.870Z,24.17
2017-08-11T09:23:49.185Z,21.20
2017-08-11T09:26:28.766Z,20.63
2017-08-11T09:29:08.224Z,24.70
2017-08-11T09:31:47.622Z,21.43
2017-08-11T09:34:27.086Z,23.77
2017-08-11T09:36:54.640Z,19.40
2017-08-11T09:39:22.183Z,26.80
2017-08-11T09:41:49.710Z,31.47
2017-08-11T09:44:18.054Z,31.13
2017-08-11T09:46:45.599Z,33.23
2017-08-11T09:49:13.133Z,30.20
2017-08-11T09:51:40.692Z,25.07
2017-08-11T09:54:08.230Z,31.63
2017-08-11T09:56:36.534Z,21.20
2017-08-11T09:59:04.117Z,35.97
2017-08-11T10:01:31.663Z,24.37
2017-08-11T10:03:59.192Z,23.43
2017-08-11T10:06:27.535Z,23.47
2017-08-11T10:08:56.728Z,27.40
2017-08-11T10:11:24.266Z,21.33
2017-08-11T10:13:51.842Z,20.37
2017-08-11T10:16:19.381Z,25.03
2017-08-11T10:18:46.916Z,28.30
2017-08-11T10:21:15.278Z,27.37
2017-08-11T10:23:42.842Z,25.60
2017-08-11T10:26:10.392Z,18.70
2017-08-11T10:28:37.963Z,23.47
2017-08-11T10:31:06.000Z,22.37
2017-08-11T10:33:33.547Z,19.70
2017-08-11T10:36:01.127Z,20.77
2017-08-11T10:38:28.653Z,27.33
2017-08-11T10:40:56.947Z,19.10
2017-08-11T10:43:24.547Z,24.97
2017-08-11T10:45:52.124Z,20.13
2017-08-11T10:48:19.671Z,29.97
2017-08-11T10:50:47.253Z,21.77
2017-08-11T10:53:16.067Z,20.93
2017-08-11T10:55:44.505Z,23.60
2017-08-11T10:58:12.073Z,13.00
2017-08-11T11:00:39.609Z,19.97
2017-08-11T11:03:07.206Z,20.73
2017-08-11T11:05:36.580Z,20.73
2017-08-11T11:08:04.112Z,20.03
2017-08-11T11:10:31.649Z,24.70
2017-08-11T11:12:59.226Z,18.67
2017-08-11T11:15:27.560Z,13.33
2017-08-11T11:17:55.129Z,15.73
2017-08-11T11:20:22.702Z,26.03
2017-08-11T11:22:50.237Z,16.03
2017-08-11T11:25:17.774Z,19.50
2017-08-11T11:27:45.329Z,14.70
2017-08-11T11:30:12.878Z,13.83
2017-08-11T11:32:41.180Z,24.37
2017-08-11T11:35:08.756Z,24.23
2017-08-11T11:37:36.319Z,17.90
2017-08-11T11:40:03.862Z,21.33
2017-08-11T11:42:31.436Z,21.83
2017-08-11T11:44:58.963Z,18.10
2017-08-11T11:47:27.279Z,24.90
2017-08-11T11:49:54.833Z,21.57
2017-08-11T11:52:22.375Z,22.10
2017-08-11T11:54:50.703Z,24.83
2017-08-11T11:57:18.288Z,24.17
2017-08-11T11:59:45.821Z,20.00
2017-08-11T12:02:13.365Z,17.90
2017-08-11T12:04:40.935Z,16.17
2017-08-11T12:07:08.481Z,22.83
2017-08-11T12:09:36.015Z,20.83
2017-08-11T12:12:04.346Z,16.93
2017-08-11T12:14:31.868Z,18.53
2017-08-11T12:17:00.162Z,32.93
2017-08-11T12:19:27.727Z,13.60
2017-08-11T12:21:55.267Z,18.07
2017-08-11T12:24:23.572Z,21.23
2017-08-11T12:26:51.130Z,20.10
2017-08-11T12:29:18.661Z,20.63
2017-08-11T12:31:46.965Z,14.50
2017-08-11T12:34:14.549Z,14.67
2017-08-11T12:36:42.104Z,18.20
2017-08-11T12:39:09.636Z,13.93
2017-08-11T12:41:37.978Z,19.20
2017-08-11T12:44:05.516Z,14.20
2017-08-11T12:46:33.055Z,10.30
2017-08-11T12:49:00.630Z,14.80
2017-08-11T12:51:28.177Z,16.27
2017-08-11T12:53:55.723Z,18.63
2017-08-11T12:56:24.048Z,10.70
2017-08-11T12:58:51.591Z,15.23
2017-08-11T13:01:19.127Z,19.37
2017-08-11T13:03:46.694Z,19.70
2017-08-11T13:06:14.251Z,13.90
2017-08-11T13:08:42.562Z,19.50
2017-08-11T13:11:11.471Z,15.00
2017-08-11T13:13:39.076Z,12.80
2017-08-11T13:16:06.615Z,14.20
2017-08-11T13:18:34.168Z,17.07
2017-08-11T13:21:01.694Z,20.50
2017-08-11T13:23:29.221Z,20.13
2017-08-11T13:25:57.553Z,13.83
2017-08-11T13:28:35.199Z,14.80
2017-08-11T13:31:03.714Z,18.03
2017-08-11T13:33:31.309Z,14.03
2017-08-11T13:35:58.852Z,20.13
2017-08-11T13:38:26.404Z,13.80
2017-08-11T13:40:53.953Z,14.43
2017-08-11T13:43:21.503Z,16.63
2017-08-11T13:45:49.846Z,19.73
2017-08-11T13:48:17.373Z,15.03
2017-08-11T13:50:44.927Z,15.27
2017-08-11T13:53:12.481Z,16.73
2017-08-11T13:55:40.022Z,18.00
2017-08-11T13:58:08.335Z,22.13
2017-08-11T14:00:35.888Z,24.40
2017-08-11T14:03:03.431Z,21.03
2017-08-11T14:05:31.744Z,28.60
2017-08-11T14:07:59.301Z,17.00
2017-08-11T14:10:26.846Z,26.40
2017-08-11T14:12:54.389Z,30.80
2017-08-11T14:15:21.963Z,18.50
2017-08-11T14:17:49.516Z,20.33
2017-08-11T14:20:17.807Z,25.27
2017-08-11T14:22:45.377Z,13.93
2017-08-11T14:25:12.903Z,27.83
2017-08-11T14:27:41.260Z,20.70
2017-08-11T14:30:12.163Z,27.20
2017-08-11T14:32:39.705Z,19.60
2017-08-11T14:35:07.250Z,20.60
2017-08-11T14:37:35.597Z,12.97
2017-08-11T14:40:03.144Z,20.37
2017-08-11T14:42:30.680Z,22.40
2017-08-11T14:44:58.601Z,15.70
2017-08-11T14:47:26.143Z,14.40
2017-08-11T14:49:54.022Z,16.63
2017-08-11T14:52:22.630Z,14.60
2017-08-11T14:54:50.177Z,24.70
2017-08-11T14:57:17.724Z,15.93
2017-08-11T14:59:45.286Z,14.97
2017-08-11T15:02:12.842Z,18.90
2017-08-11T15:04:40.414Z,13.90
2017-08-11T15:07:08.396Z,20.40
2017-08-11T15:09:35.949Z,27.57
2017-08-11T15:12:03.757Z,18.43
2017-08-11T15:14:32.212Z,12.03
2017-08-11T15:17:04.803Z,20.50
2017-08-11T15:19:34.741Z,17.50
2017-08-11T15:22:02.289Z,25.40
2017-08-11T15:24:33.638Z,18.27
2017-08-11T15:27:01.215Z,15.53
2017-08-11T15:29:29.504Z,13.87
2017-08-11T15:31:57.069Z,19.13
2017-08-11T15:34:24.637Z,18.73
2017-08-11T15:36:52.171Z,17.30
2017-08-11T15:39:20.510Z,14.17
2017-08-11T15:41:48.070Z,23.13
2017-08-11T15:44:15.715Z,24.13
2017-08-11T15:46:43.584Z,29.23
2017-08-11T15:49:13.968Z,21.07
2017-08-11T15:51:41.518Z,12.33
2017-08-11T15:56:48.680Z,20.67
2017-08-11T15:59:16.301Z,23.43
2017-08-11T16:01:43.837Z,21.73
2017-08-11T16:04:11.371Z,21.07
2017-08-11T16:06:39.042Z,14.03
2017-08-11T16:09:06.577Z,22.50
2017-08-11T16:11:34.126Z,28.27
2017-08-11T16:14:02.458Z,20.90
2017-08-11T16:16:30.008Z,23.30
2017-08-11T16:18:57.548Z,17.40
2017-08-11T16:21:25.130Z,24.90
2017-08-11T16:23:52.670Z,22.07
2017-08-11T16:26:21.289Z,22.47
2017-08-11T16:28:48.910Z,23.93
2017-08-11T16:31:18.751Z,22.83
2017-08-11T16:33:46.286Z,28.33
2017-08-11T16:36:13.864Z,37.73
2017-08-11T16:38:44.131Z,27.10
2017-08-11T16:41:12.136Z,24.10
2017-08-11T16:43:40.471Z,28.70
2017-08-11T16:46:08.028Z,24.30
2017-08-11T16:48:35.696Z,20.83
2017-08-11T16:51:03.289Z,24.33
2017-08-11T16:53:30.825Z,22.90
2017-08-11T16:55:58.380Z,19.53
2017-08-11T16:58:25.977Z,19.57
2017-08-11T17:00:53.521Z,26.67
2017-08-11T17:03:21.238Z,17.10
2017-08-11T17:05:49.296Z,22.70
2017-08-11T17:08:17.622Z,25.10
2017-08-11T17:10:45.702Z,25.40
2017-08-11T17:13:13.314Z,24.33
2017-08-11T17:15:41.644Z,25.90
2017-08-11T17:18:09.291Z,30.53
2017-08-11T17:20:36.871Z,30.47
2017-08-11T17:23:04.409Z,19.87
2017-08-11T17:25:31.963Z,20.30
2017-08-11T17:27:59.545Z,21.30
2017-08-11T17:30:27.101Z,32.90
2017-08-11T17:32:54.687Z,29.27
2017-08-11T17:35:22.292Z,22.47
2017-08-11T17:37:50.653Z,26.17
2017-08-11T17:40:18.215Z,28.30
2017-08-11T17:42:45.789Z,24.90
2017-08-11T17:45:13.349Z,25.17
2017-08-11T17:47:40.929Z,23.27
2017-08-11T17:50:09.278Z,27.53
2017-08-11T17:52:36.813Z,24.40
2017-08-11T17:55:04.353Z,19.63
2017-08-11T17:57:31.922Z,22.33
2017-08-11T17:59:59.459Z,30.50
2017-08-11T18:02:27.025Z,24.97
2017-08-11T18:04:54.614Z,22.97
2017-08-11T18:07:22.191Z,20.87
2017-08-11T18:09:50.020Z,24.23
2017-08-11T18:12:17.596Z,24.37
2017-08-11T18:14:45.129Z,31.67
2017-08-11T18:17:13.466Z,28.23
2017-08-11T18:19:41.044Z,36.57
2017-08-11T18:22:08.600Z,24.00
2017-08-11T18:24:36.151Z,29.37
2017-08-11T18:27:03.714Z,27.60
2017-08-11T18:29:31.280Z,21.63
2017-08-11T18:31:58.836Z,24.03
2017-08-11T18:34:26.413Z,33.97
2017-08-11T18:36:53.973Z,27.50
2017-08-11T18:39:21.527Z,22.63
2017-08-11T18:41:49.111Z,30.63
2017-08-11T18:44:16.644Z,29.43
2017-08-11T18:46:44.185Z,32.27
2017-08-11T18:49:11.769Z,23.97
2017-08-11T18:51:39.301Z,24.33
2017-08-11T18:54:06.873Z,29.10
2017-08-11T18:56:34.452Z,29.80
2017-08-11T18:59:01.988Z,32.33
2017-08-11T19:01:29.543Z,26.90
2017-08-11T19:03:57.112Z,28.07
2017-08-11T19:06:24.642Z,29.13
2017-08-11T19:08:52.171Z,40.00
2017-08-11T19:11:19.759Z,27.37
2017-08-11T19:13:47.300Z,27.00
2017-08-11T19:16:14.829Z,27.60
2017-08-11T19:18:42.388Z,31.83
2017-08-11T19:21:09.917Z,23.70
2017-08-11T19:23:38.234Z,37.43
2017-08-11T19:26:05.808Z,31.30
2017-08-11T19:28:33.333Z,34.50
2017-08-11T19:31:00.878Z,32.00
2017-08-11T19:33:29.212Z,38.27
2017-08-11T19:35:56.777Z,41.03
2017-08-11T19:38:24.336Z,34.20
2017-08-11T19:40:51.931Z,36.30
2017-08-11T19:43:20.263Z,30.53
2017-08-11T19:45:47.802Z,33.47
2017-08-11T19:48:15.368Z,38.37
2017-08-11T19:50:42.900Z,37.97
2017-08-11T19:53:10.480Z,29.83
2017-08-11T19:55:38.070Z,28.73
2017-08-11T19:58:05.616Z,29.43
2017-08-11T20:00:33.172Z,30.33
2017-08-11T20:03:00.735Z,35.70
2017-08-11T20:05:28.283Z,31.83
2017-08-11T20:07:56.599Z,40.85
2017-08-11T20:10:24.162Z,28.10
2017-08-11T20:12:51.972Z,36.60
2017-08-11T20:15:19.514Z,29.97
2017-08-11T20:17:47.088Z,31.23
2017-08-11T20:20:14.639Z,38.27
2017-08-11T20:22:42.278Z,36.47
2017-08-11T20:25:09.877Z,35.87
2017-08-11T20:27:37.431Z,32.93
2017-08-11T20:30:04.983Z,28.50
2017-08-11T20:32:32.559Z,31.90
2017-08-11T20:35:00.116Z,31.27
2017-08-11T20:37:27.663Z,32.03
2017-08-11T20:39:55.244Z,33.20
2017-08-11T20:42:23.108Z,28.73
2017-08-11T20:44:52.051Z,28.67
2017-08-11T20:47:19.937Z,35.63
2017-08-11T20:49:47.573Z,29.97
2017-08-11T20:52:15.973Z,29.93
2017-08-11T20:54:43.564Z,33.45
2017-08-11T20:57:11.106Z,25.73
2017-08-11T20:59:38.759Z,25.87
2017-08-11T21:02:06.316Z,27.33
2017-08-11T21:04:33.866Z,29.23
2017-08-11T21:07:02.530Z,36.23
2017-08-11T21:09:30.477Z,47.67
2017-08-11T21:11:58.004Z,32.78
2017-08-11T21:14:25.553Z,31.52
2017-08-11T21:16:53.144Z,28.50
2017-08-11T21:19:20.680Z,26.95
2017-08-11T21:21:48.230Z,24.67
2017-08-11T21:24:16.561Z,23.83
2017-08-11T21:26:52.946Z,25.97
2017-08-11T21:29:20.539Z,26.00
2017-08-11T21:31:48.082Z,28.73
2017-08-11T21:34:15.661Z,32.33
2017-08-11T21:36:44.010Z,29.23
2017-08-11T21:39:11.579Z,42.27
2017-08-11T21:41:39.922Z,34.80
2017-08-11T21:44:07.509Z,30.20
2017-08-11T21:46:35.074Z,43.03
2017-08-11T21:49:02.618Z,34.03
2017-08-11T21:51:30.194Z,24.70
2017-08-11T21:53:57.747Z,34.53
2017-08-11T21:56:25.328Z,32.07
2017-08-11T21:58:52.890Z,37.50
2017-08-11T22:01:20.440Z,35.23
2017-08-11T22:03:47.990Z,38.07
2017-08-11T22:06:15.569Z,38.10
2017-08-11T22:08:43.105Z,49.70
2017-08-11T22:11:10.655Z,33.43
2017-08-11T22:13:38.217Z,32.53
2017-08-11T22:16:05.749Z,36.63
2017-08-11T22:18:33.294Z,35.67
2017-08-11T22:21:00.879Z,40.17
2017-08-11T22:23:28.432Z,43.83
2017-08-11T22:25:56.001Z,44.30
2017-08-11T22:28:23.565Z,34.40
2017-08-11T22:30:51.122Z,34.23
2017-08-11T22:33:18.680Z,32.33
2017-08-11T22:35:47.013Z,26.80
2017-08-11T22:38:14.553Z,29.97
2017-08-11T22:40:42.101Z,33.03
2017-08-11T22:43:09.704Z,47.37
2017-08-11T22:45:37.263Z,30.17
2017-08-11T22:48:04.796Z,30.00
2017-08-11T22:50:32.370Z,30.23
2017-08-11T22:52:59.934Z,36.37
2017-08-11T22:55:27.462Z,26.20
2017-08-11T22:57:55.029Z,32.03
2017-08-11T23:00:22.579Z,37.43
2017-08-11T23:02:50.972Z,33.33
2017-08-11T23:05:18.546Z,24.73
2017-08-11T23:07:46.078Z,28.27
2017-08-11T23:10:13.617Z,32.53
2017-08-11T23:12:41.195Z,30.73
2017-08-11T23:15:08.746Z,29.50
2017-08-11T23:17:36.297Z,31.70
2017-08-11T23:20:03.862Z,28.17
2017-08-11T23:22:31.399Z,31.40
2017-08-11T23:24:58.936Z,34.63
2017-08-11T23:27:26.511Z,41.90
2017-08-11T23:29:54.046Z,29.00
2017-08-11T23:32:21.588Z,28.80
2017-08-11T23:34:49.168Z,30.80
2017-08-11T23:37:16.727Z,27.13
2017-08-11T23:39:45.032Z,37.80
2017-08-11T23:42:12.606Z,38.70
2017-08-11T23:44:40.156Z,33.77
2017-08-11T23:47:07.694Z,38.77
2017-08-11T23:49:35.272Z,31.23
2017-08-11T23:52:02.805Z,28.80
2017-08-11T23:54:31.115Z,30.40
2017-08-11T23:56:58.698Z,28.77
2017-08-11T23:59:26.238Z,40.63
